sensor_id;sensor_type;location;lat;lon;timestamp;pressure;altitude;pressure_sealevel;temperature;humidity
51928;BME280;37953;52.806;18.270;2023-03-26T00:00:08;99191.91;;;9.54;100.00
51928;BME280;37953;52.806;18.270;2023-03-26T00:02:55;99194.50;;;9.54;100.00
51928;BME280;37953;52.806;18.270;2023-03-26T00:05:25;99186.72;;;9.54;100.00
51928;BME280;37953;52.806;18.270;2023-03-26T00:07:51;99191.06;;;9.53;100.00
51928;BME280;37953;52.806;18.270;2023-03-26T00:10:17;99189.31;;;9.55;100.00
51928;BME280;37953;52.806;18.270;2023-03-26T00:12:43;99181.53;;;9.55;100.00
51928;BME280;37953;52.806;18.270;2023-03-26T00:15:09;99182.38;;;9.54;100.00
51928;BME280;37953;52.806;18.270;2023-03-26T00:17:35;99196.22;;;9.55;100.00
51928;BME280;37953;52.806;18.270;2023-03-26T00:20:01;99194.50;;;9.54;100.00
51928;BME280;37953;52.806;18.270;2023-03-26T00:22:27;99195.41;;;9.51;100.00
51928;BME280;37953;52.806;18.270;2023-03-26T00:24:53;99194.56;;;9.51;100.00
51928;BME280;37953;52.806;18.270;2023-03-26T00:27:21;99198.00;;;9.50;100.00
51928;BME280;37953;52.806;18.270;2023-03-26T00:29:47;99185.09;;;9.48;100.00
51928;BME280;37953;52.806;18.270;2023-03-26T00:32:21;99192.91;;;9.45;100.00
51928;BME280;37953;52.806;18.270;2023-03-26T00:34:47;99194.66;;;9.43;100.00
51928;BME280;37953;52.806;18.270;2023-03-26T00:37:16;99182.59;;;9.42;100.00
51928;BME280;37953;52.806;18.270;2023-03-26T00:39:42;99190.34;;;9.42;100.00
51928;BME280;37953;52.806;18.270;2023-03-26T00:42:09;99185.19;;;9.42;100.00
51928;BME280;37953;52.806;18.270;2023-03-26T00:44:34;99189.47;;;9.42;100.00
51928;BME280;37953;52.806;18.270;2023-03-26T00:47:00;99175.66;;;9.43;100.00
51928;BME280;37953;52.806;18.270;2023-03-26T00:49:26;99174.81;;;9.42;100.00
51928;BME280;37953;52.806;18.270;2023-03-26T00:51:55;99176.50;;;9.43;100.00
51928;BME280;37953;52.806;18.270;2023-03-26T00:54:21;99164.44;;;9.42;100.00
51928;BME280;37953;52.806;18.270;2023-03-26T00:56:46;99175.66;;;9.43;100.00
51928;BME280;37953;52.806;18.270;2023-03-26T00:59:12;99160.97;;;9.42;100.00
51928;BME280;37953;52.806;18.270;2023-03-26T01:01:38;99158.38;;;9.42;100.00
51928;BME280;37953;52.806;18.270;2023-03-26T01:04:18;99166.16;;;9.42;100.00
51928;BME280;37953;52.806;18.270;2023-03-26T01:06:45;99156.66;;;9.41;100.00
51928;BME280;37953;52.806;18.270;2023-03-26T01:09:12;99160.13;;;9.40;100.00
51928;BME280;37953;52.806;18.270;2023-03-26T01:11:39;99150.66;;;9.38;100.00
51928;BME280;37953;52.806;18.270;2023-03-26T01:14:06;99157.56;;;9.38;100.00
51928;BME280;37953;52.806;18.270;2023-03-26T01:16:40;99155.00;;;9.36;100.00
51928;BME280;37953;52.806;18.270;2023-03-26T01:21:41;99155.00;;;9.36;100.00
51928;BME280;37953;52.806;18.270;2023-03-26T01:24:07;99154.09;;;9.37;100.00
51928;BME280;37953;52.806;18.270;2023-03-26T01:29:20;99155.00;;;9.36;100.00
51928;BME280;37953;52.806;18.270;2023-03-26T01:31:50;99146.38;;;9.34;100.00
51928;BME280;37953;52.806;18.270;2023-03-26T01:34:19;99144.69;;;9.33;100.00
51928;BME280;37953;52.806;18.270;2023-03-26T01:39:18;99155.91;;;9.32;100.00
51928;BME280;37953;52.806;18.270;2023-03-26T01:41:48;99146.38;;;9.34;100.00
51928;BME280;37953;52.806;18.270;2023-03-26T01:46:41;99141.19;;;9.34;100.00
51928;BME280;37953;52.806;18.270;2023-03-26T01:49:07;99148.09;;;9.35;100.00
51928;BME280;37953;52.806;18.270;2023-03-26T01:51:38;99145.50;;;9.35;100.00
51928;BME280;37953;52.806;18.270;2023-03-26T01:54:05;99145.47;;;9.37;100.00
51928;BME280;37953;52.806;18.270;2023-03-26T02:06:42;99137.72;;;9.35;100.00
51928;BME280;37953;52.806;18.270;2023-03-26T02:11:58;99139.47;;;9.35;100.00
51928;BME280;37953;52.806;18.270;2023-03-26T02:14:24;99136.03;;;9.34;100.00
51928;BME280;37953;52.806;18.270;2023-03-26T02:16:50;99135.16;;;9.34;100.00
51928;BME280;37953;52.806;18.270;2023-03-26T02:19:16;99138.63;;;9.33;100.00
51928;BME280;37953;52.806;18.270;2023-03-26T02:21:46;99137.78;;;9.31;100.00
51928;BME280;37953;52.806;18.270;2023-03-26T02:24:16;99127.47;;;9.29;100.00
51928;BME280;37953;52.806;18.270;2023-03-26T02:26:41;99119.69;;;9.28;100.00
51928;BME280;37953;52.806;18.270;2023-03-26T02:29:07;99129.22;;;9.27;100.00
51928;BME280;37953;52.806;18.270;2023-03-26T02:31:34;99123.16;;;9.27;100.00
51928;BME280;37953;52.806;18.270;2023-03-26T02:34:00;99128.34;;;9.27;100.00
51928;BME280;37953;52.806;18.270;2023-03-26T02:36:26;99119.78;;;9.23;100.00
51928;BME280;37953;52.806;18.270;2023-03-26T02:38:53;99131.00;;;9.22;100.00
51928;BME280;37953;52.806;18.270;2023-03-26T02:41:19;99126.72;;;9.21;100.00
51928;BME280;37953;52.806;18.270;2023-03-26T02:43:45;99128.41;;;9.21;100.00
51928;BME280;37953;52.806;18.270;2023-03-26T02:46:10;99131.91;;;9.20;100.00
51928;BME280;37953;52.806;18.270;2023-03-26T02:48:36;99125.03;;;9.19;100.00
51928;BME280;37953;52.806;18.270;2023-03-26T02:51:02;99118.09;;;9.17;100.00
51928;BME280;37953;52.806;18.270;2023-03-26T02:53:28;99113.84;;;9.15;100.00
51928;BME280;37953;52.806;18.270;2023-03-26T02:55:57;99105.22;;;9.13;100.00
51928;BME280;37953;52.806;18.270;2023-03-26T02:58:24;99102.66;;;9.10;100.00
51928;BME280;37953;52.806;18.270;2023-03-26T03:00:51;99097.50;;;9.08;100.00
51928;BME280;37953;52.806;18.270;2023-03-26T03:03:28;99099.28;;;9.06;100.00
51928;BME280;37953;52.806;18.270;2023-03-26T03:05:54;99094.09;;;9.05;100.00
51928;BME280;37953;52.806;18.270;2023-03-26T03:08:21;99103.63;;;9.03;100.00
51928;BME280;37953;52.806;18.270;2023-03-26T03:10:54;99100.19;;;9.02;100.00
51928;BME280;37953;52.806;18.270;2023-03-26T03:13:26;99102.78;;;8.99;100.00
51928;BME280;37953;52.806;18.270;2023-03-26T03:15:52;99098.50;;;9.00;100.00
51928;BME280;37953;52.806;18.270;2023-03-26T03:18:17;99101.09;;;9.00;100.00
51928;BME280;37953;52.806;18.270;2023-03-26T03:20:43;99096.75;;;8.99;100.00
51928;BME280;37953;52.806;18.270;2023-03-26T03:23:09;99095.06;;;8.96;100.00
51928;BME280;37953;52.806;18.270;2023-03-26T03:25:35;99105.44;;;8.94;100.00
51928;BME280;37953;52.806;18.270;2023-03-26T03:28:03;99104.63;;;8.92;100.00
51928;BME280;37953;52.806;18.270;2023-03-26T03:30:29;99105.50;;;8.90;100.00
51928;BME280;37953;52.806;18.270;2023-03-26T03:32:55;99107.25;;;8.89;100.00
51928;BME280;37953;52.806;18.270;2023-03-26T03:35:23;99108.13;;;8.88;100.00
51928;BME280;37953;52.806;18.270;2023-03-26T03:37:49;99103.81;;;8.87;100.00
51928;BME280;37953;52.806;18.270;2023-03-26T03:40:15;99106.44;;;8.86;100.00
51928;BME280;37953;52.806;18.270;2023-03-26T03:42:41;99109.03;;;8.84;100.00
51928;BME280;37953;52.806;18.270;2023-03-26T03:45:07;99096.97;;;8.83;100.00
51928;BME280;37953;52.806;18.270;2023-03-26T03:47:33;99092.63;;;8.84;100.00
51928;BME280;37953;52.806;18.270;2023-03-26T03:49:59;99096.97;;;8.83;100.00
51928;BME280;37953;52.806;18.270;2023-03-26T03:52:26;99096.97;;;8.83;100.00
51928;BME280;37953;52.806;18.270;2023-03-26T03:54:55;99089.19;;;8.83;100.00
51928;BME280;37953;52.806;18.270;2023-03-26T03:57:22;99100.41;;;8.84;100.00
51928;BME280;37953;52.806;18.270;2023-03-26T03:59:48;99099.53;;;8.85;100.00
51928;BME280;37953;52.806;18.270;2023-03-26T04:02:14;99098.66;;;8.84;100.00
51928;BME280;37953;52.806;18.270;2023-03-26T04:04:52;99102.13;;;8.85;100.00
51928;BME280;37953;52.806;18.270;2023-03-26T04:07:19;99101.25;;;8.86;100.00
51928;BME280;37953;52.806;18.270;2023-03-26T04:09:45;99092.59;;;8.87;100.00
51928;BME280;37953;52.806;18.270;2023-03-26T04:12:11;99102.94;;;8.87;100.00
51928;BME280;37953;52.806;18.270;2023-03-26T04:14:37;99088.28;;;8.87;100.00
51928;BME280;37953;52.806;18.270;2023-03-26T04:17:03;99093.47;;;8.87;100.00
51928;BME280;37953;52.806;18.270;2023-03-26T04:19:30;99099.50;;;8.88;100.00
51928;BME280;37953;52.806;18.270;2023-03-26T04:21:56;99102.09;;;8.86;100.00
51928;BME280;37953;52.806;18.270;2023-03-26T04:24:27;99098.66;;;8.86;100.00
51928;BME280;37953;52.806;18.270;2023-03-26T04:26:54;99095.22;;;8.85;100.00
51928;BME280;37953;52.806;18.270;2023-03-26T04:29:27;99100.41;;;8.85;100.00
51928;BME280;37953;52.806;18.270;2023-03-26T04:31:55;99094.38;;;8.85;100.00
51928;BME280;37953;52.806;18.270;2023-03-26T04:34:30;99092.63;;;8.84;100.00
51928;BME280;37953;52.806;18.270;2023-03-26T04:36:57;99090.03;;;8.84;100.00
51928;BME280;37953;52.806;18.270;2023-03-26T04:39:23;99084.88;;;8.84;100.00
51928;BME280;37953;52.806;18.270;2023-03-26T04:41:54;99086.59;;;8.83;100.00
51928;BME280;37953;52.806;18.270;2023-03-26T04:44:20;99080.59;;;8.83;100.00
51928;BME280;37953;52.806;18.270;2023-03-26T04:46:49;99072.81;;;8.83;100.00
51928;BME280;37953;52.806;18.270;2023-03-26T04:49:17;99074.53;;;8.82;100.00
51928;BME280;37953;52.806;18.270;2023-03-26T04:51:44;99074.53;;;8.82;100.00
51928;BME280;37953;52.806;18.270;2023-03-26T04:54:14;99071.94;;;8.82;100.00
51928;BME280;37953;52.806;18.270;2023-03-26T04:59:09;99068.47;;;8.83;100.00
51928;BME280;37953;52.806;18.270;2023-03-26T05:01:38;99068.47;;;8.83;100.00
51928;BME280;37953;52.806;18.270;2023-03-26T05:04:04;99070.19;;;8.84;100.00
51928;BME280;37953;52.806;18.270;2023-03-26T05:06:30;99074.50;;;8.84;100.00
51928;BME280;37953;52.806;18.270;2023-03-26T05:09:01;99080.53;;;8.86;100.00
51928;BME280;37953;52.806;18.270;2023-03-26T05:11:27;99076.19;;;8.86;100.00
51928;BME280;37953;52.806;18.270;2023-03-26T05:13:53;99081.38;;;8.88;100.00
51928;BME280;37953;52.806;18.270;2023-03-26T05:16:19;99077.94;;;8.87;100.00
51928;BME280;37953;52.806;18.270;2023-03-26T05:18:46;99079.63;;;8.88;100.00
51928;BME280;37953;52.806;18.270;2023-03-26T05:21:12;99077.03;;;8.88;100.00
51928;BME280;37953;52.806;18.270;2023-03-26T05:23:38;99070.16;;;8.87;100.00
51928;BME280;37953;52.806;18.270;2023-03-26T05:26:04;99077.03;;;8.88;100.00
51928;BME280;37953;52.806;18.270;2023-03-26T05:28:35;99080.50;;;8.87;100.00
51928;BME280;37953;52.806;18.270;2023-03-26T05:31:08;99078.78;;;8.88;100.00
51928;BME280;37953;52.806;18.270;2023-03-26T05:33:35;99079.63;;;8.88;100.00
51928;BME280;37953;52.806;18.270;2023-03-26T05:36:02;99081.34;;;8.89;100.00
51928;BME280;37953;52.806;18.270;2023-03-26T05:38:29;99079.63;;;8.88;100.00
51928;BME280;37953;52.806;18.270;2023-03-26T05:40:58;99084.81;;;8.88;100.00
51928;BME280;37953;52.806;18.270;2023-03-26T05:43:24;99074.44;;;8.88;100.00
51928;BME280;37953;52.806;18.270;2023-03-26T05:45:50;99082.22;;;8.88;100.00
51928;BME280;37953;52.806;18.270;2023-03-26T05:48:16;99094.31;;;8.88;100.00
51928;BME280;37953;52.806;18.270;2023-03-26T05:50:43;99091.72;;;8.86;100.00
51928;BME280;37953;52.806;18.270;2023-03-26T05:53:08;99078.78;;;8.86;100.00
51928;BME280;37953;52.806;18.270;2023-03-26T05:55:34;99077.94;;;8.86;100.00
51928;BME280;37953;52.806;18.270;2023-03-26T05:58:00;99076.19;;;8.86;100.00
51928;BME280;37953;52.806;18.270;2023-03-26T06:00:26;99086.56;;;8.86;100.00
51928;BME280;37953;52.806;18.270;2023-03-26T06:02:52;99080.50;;;8.87;100.00
51928;BME280;37953;52.806;18.270;2023-03-26T06:05:19;99084.81;;;8.88;100.00
51928;BME280;37953;52.806;18.270;2023-03-26T06:07:45;99094.31;;;8.89;100.00
51928;BME280;37953;52.806;18.270;2023-03-26T06:10:11;99090.84;;;8.89;100.00
51928;BME280;37953;52.806;18.270;2023-03-26T06:12:37;99084.78;;;8.90;100.00
51928;BME280;37953;52.806;18.270;2023-03-26T06:15:03;99083.91;;;8.91;100.00
51928;BME280;37953;52.806;18.270;2023-03-26T06:17:29;99086.47;;;8.92;100.00
51928;BME280;37953;52.806;18.270;2023-03-26T06:19:55;99095.09;;;8.94;100.00
51928;BME280;37953;52.806;18.270;2023-03-26T06:22:21;99093.34;;;8.95;100.00
51928;BME280;37953;52.806;18.270;2023-03-26T06:24:47;99091.63;;;8.95;100.00
51928;BME280;37953;52.806;18.270;2023-03-26T06:27:13;99089.00;;;8.97;100.00
51928;BME280;37953;52.806;18.270;2023-03-26T06:29:39;99103.69;;;8.96;100.00
51928;BME280;37953;52.806;18.270;2023-03-26T06:32:05;99095.94;;;8.96;100.00
51928;BME280;37953;52.806;18.270;2023-03-26T06:34:31;99101.97;;;8.97;100.00
51928;BME280;37953;52.806;18.270;2023-03-26T06:36:56;99102.84;;;8.98;100.00
51928;BME280;37953;52.806;18.270;2023-03-26T06:39:22;99100.25;;;8.98;100.00
51928;BME280;37953;52.806;18.270;2023-03-26T06:41:48;99100.25;;;8.98;100.00
51928;BME280;37953;52.806;18.270;2023-03-26T06:44:14;99101.09;;;8.98;100.00
51928;BME280;37953;52.806;18.270;2023-03-26T06:46:39;99105.44;;;8.98;100.00
51928;BME280;37953;52.806;18.270;2023-03-26T06:49:05;99106.28;;;8.98;100.00
51928;BME280;37953;52.806;18.270;2023-03-26T06:51:31;99103.69;;;9.00;100.00
51928;BME280;37953;52.806;18.270;2023-03-26T06:53:57;99096.75;;;9.02;100.00
51928;BME280;37953;52.806;18.270;2023-03-26T06:56:23;99106.25;;;9.00;100.00
51928;BME280;37953;52.806;18.270;2023-03-26T06:58:49;99114.84;;;9.03;100.00
51928;BME280;37953;52.806;18.270;2023-03-26T07:01:14;99107.06;;;9.03;100.00
51928;BME280;37953;52.806;18.270;2023-03-26T07:03:40;99108.78;;;9.04;100.00
51928;BME280;37953;52.806;18.270;2023-03-26T07:06:06;99113.97;;;9.04;100.00
51928;BME280;37953;52.806;18.270;2023-03-26T07:08:32;99112.22;;;9.05;100.00
51928;BME280;37953;52.806;18.270;2023-03-26T07:10:58;99105.28;;;9.07;100.00
51928;BME280;37953;52.806;18.270;2023-03-26T07:13:24;99107.88;;;9.08;100.00
51928;BME280;37953;52.806;18.270;2023-03-26T07:15:50;99104.41;;;9.09;100.00
51928;BME280;37953;52.806;18.270;2023-03-26T07:18:22;99112.16;;;9.11;100.00
51928;BME280;37953;52.806;18.270;2023-03-26T07:20:47;99111.25;;;9.13;100.00
51928;BME280;37953;52.806;18.270;2023-03-26T07:23:14;99110.38;;;9.14;100.00
51928;BME280;37953;52.806;18.270;2023-03-26T07:25:44;99112.09;;;9.15;100.00
51928;BME280;37953;52.806;18.270;2023-03-26T07:28:21;99106.91;;;9.17;100.00
51928;BME280;37953;52.806;18.270;2023-03-26T07:33:36;99118.94;;;9.21;100.00
51928;BME280;37953;52.806;18.270;2023-03-26T07:41:21;99117.97;;;9.27;100.00
51928;BME280;37953;52.806;18.270;2023-03-26T07:46:34;99121.41;;;9.29;100.00
51928;BME280;37953;52.806;18.270;2023-03-26T07:49:02;99130.06;;;9.29;100.00
51928;BME280;37953;52.806;18.270;2023-03-26T07:51:29;99117.94;;;9.30;100.00
51928;BME280;37953;52.806;18.270;2023-03-26T07:53:55;99123.13;;;9.30;100.00
51928;BME280;37953;52.806;18.270;2023-03-26T07:56:35;99130.00;;;9.31;100.00
51928;BME280;37953;52.806;18.270;2023-03-26T08:04:28;99122.22;;;9.34;100.00
51928;BME280;37953;52.806;18.270;2023-03-26T08:09:33;99137.63;;;9.42;100.00
51928;BME280;37953;52.806;18.270;2023-03-26T08:12:02;99128.09;;;9.45;100.00
51928;BME280;37953;52.806;18.270;2023-03-26T08:14:39;99124.56;;;9.49;100.00
51928;BME280;37953;52.806;18.270;2023-03-26T08:17:09;99127.16;;;9.51;100.00
51928;BME280;37953;52.806;18.270;2023-03-26T08:24:34;99136.59;;;9.55;100.00
51928;BME280;37953;52.806;18.270;2023-03-26T08:29:38;99138.31;;;9.54;100.00
51928;BME280;37953;52.806;18.270;2023-03-26T08:32:13;99138.31;;;9.54;100.00
51928;BME280;37953;52.806;18.270;2023-03-26T08:34:40;99134.03;;;9.53;100.00
51928;BME280;37953;52.806;18.270;2023-03-26T08:37:09;99147.00;;;9.53;100.00
51928;BME280;37953;52.806;18.270;2023-03-26T08:39:36;99146.13;;;9.53;100.00
51928;BME280;37953;52.806;18.270;2023-03-26T08:42:10;99147.00;;;9.52;100.00
51928;BME280;37953;52.806;18.270;2023-03-26T08:44:57;99153.03;;;9.54;100.00
51928;BME280;37953;52.806;18.270;2023-03-26T08:55:26;99151.25;;;9.56;100.00
51928;BME280;37953;52.806;18.270;2023-03-26T09:13:58;99166.75;;;9.61;100.00
51928;BME280;37953;52.806;18.270;2023-03-26T09:19:30;99169.41;;;9.57;100.00
51928;BME280;37953;52.806;18.270;2023-03-26T09:30:03;99165.97;;;9.55;100.00
51928;BME280;37953;52.806;18.270;2023-03-26T09:33:02;99165.97;;;9.55;100.00
51928;BME280;37953;52.806;18.270;2023-03-26T12:11:14;99146.47;;;10.88;100.00
51928;BME280;37953;52.806;18.270;2023-03-26T12:13:44;99143.91;;;10.87;100.00
51928;BME280;37953;52.806;18.270;2023-03-26T12:16:16;99144.75;;;10.86;100.00
51928;BME280;37953;52.806;18.270;2023-03-26T12:18:42;99149.13;;;10.85;100.00
51928;BME280;37953;52.806;18.270;2023-03-26T12:21:13;99140.47;;;10.85;100.00
51928;BME280;37953;52.806;18.270;2023-03-26T12:26:50;99139.56;;;10.86;100.00
51928;BME280;37953;52.806;18.270;2023-03-26T12:29:03;99136.09;;;10.88;100.00
51928;BME280;37953;52.806;18.270;2023-03-26T12:31:29;99142.03;;;10.93;100.00
51928;BME280;37953;52.806;18.270;2023-03-26T12:34:06;99145.34;;;11.00;100.00
51928;BME280;37953;52.806;18.270;2023-03-26T12:36:38;99129.63;;;11.08;100.00
51928;BME280;37953;52.806;18.270;2023-03-26T12:41:53;99140.59;;;11.22;100.00
51928;BME280;37953;52.806;18.270;2023-03-26T12:44:21;99143.00;;;11.30;100.00
51928;BME280;37953;52.806;18.270;2023-03-26T12:47:07;99139.44;;;11.35;100.00
51928;BME280;37953;52.806;18.270;2023-03-26T12:49:38;99133.28;;;11.39;100.00
51928;BME280;37953;52.806;18.270;2023-03-26T12:54:39;99130.53;;;11.46;100.00
51928;BME280;37953;52.806;18.270;2023-03-26T12:57:35;99133.13;;;11.47;100.00
51928;BME280;37953;52.806;18.270;2023-03-26T13:11:08;99145.41;;;11.78;100.00
51928;BME280;37953;52.806;18.270;2023-03-26T13:16:08;99148.28;;;11.66;100.00
51928;BME280;37953;52.806;18.270;2023-03-26T13:24:40;99147.00;;;11.45;100.00
51928;BME280;37953;52.806;18.270;2023-03-26T13:29:52;99139.47;;;11.32;100.00
51928;BME280;37953;52.806;18.270;2023-03-26T13:33:23;99138.69;;;11.30;100.00
51928;BME280;37953;52.806;18.270;2023-03-26T13:35:32;99135.25;;;11.28;100.00
51928;BME280;37953;52.806;18.270;2023-03-26T13:48:18;99136.22;;;11.23;100.00
51928;BME280;37953;52.806;18.270;2023-03-26T13:50:49;99143.19;;;11.22;100.00
51928;BME280;37953;52.806;18.270;2023-03-26T13:53:21;99141.44;;;11.23;100.00
51928;BME280;37953;52.806;18.270;2023-03-26T13:55:49;99138.84;;;11.23;100.00
51928;BME280;37953;52.806;18.270;2023-03-26T14:04:25;99132.00;;;11.17;100.00
51928;BME280;37953;52.806;18.270;2023-03-26T14:07:02;99129.47;;;11.15;100.00
51928;BME280;37953;52.806;18.270;2023-03-26T14:09:35;99129.47;;;11.15;100.00
51928;BME280;37953;52.806;18.270;2023-03-26T14:15:01;99130.31;;;11.16;100.00
51928;BME280;37953;52.806;18.270;2023-03-26T14:43:47;99123.56;;;11.48;100.00
51928;BME280;37953;52.806;18.270;2023-03-26T14:49:07;99121.81;;;11.48;100.00
51928;BME280;37953;52.806;18.270;2023-03-26T14:54:21;99120.06;;;11.49;100.00
51928;BME280;37953;52.806;18.270;2023-03-26T14:56:58;99123.50;;;11.49;100.00
51928;BME280;37953;52.806;18.270;2023-03-26T15:15:21;99121.88;;;11.45;100.00
51928;BME280;37953;52.806;18.270;2023-03-26T15:18:05;99114.09;;;11.45;100.00
51928;BME280;37953;52.806;18.270;2023-03-26T15:31:10;99117.53;;;11.46;100.00
51928;BME280;37953;52.806;18.270;2023-03-26T15:41:45;99116.84;;;11.37;100.00
51928;BME280;37953;52.806;18.270;2023-03-26T15:44:32;99123.75;;;11.38;100.00
51928;BME280;37953;52.806;18.270;2023-03-26T15:50:07;99125.47;;;11.39;100.00
51928;BME280;37953;52.806;18.270;2023-03-26T15:55:24;99115.94;;;11.38;100.00
51928;BME280;37953;52.806;18.270;2023-03-26T15:58:09;99128.94;;;11.38;100.00
51928;BME280;37953;52.806;18.270;2023-03-26T16:03:57;99122.06;;;11.37;100.00
51928;BME280;37953;52.806;18.270;2023-03-26T16:17:02;99134.25;;;11.34;100.00
51928;BME280;37953;52.806;18.270;2023-03-26T16:22:33;99137.78;;;11.31;100.00
51928;BME280;37953;52.806;18.270;2023-03-26T16:30:38;99152.56;;;11.28;100.00
51928;BME280;37953;52.806;18.270;2023-03-26T16:33:13;99142.22;;;11.26;100.00
51928;BME280;37953;52.806;18.270;2023-03-26T16:38:27;99144.88;;;11.23;100.00
51928;BME280;37953;52.806;18.270;2023-03-26T16:44:14;99151.94;;;11.18;100.00
51928;BME280;37953;52.806;18.270;2023-03-26T16:46:59;99153.72;;;11.16;100.00
51928;BME280;37953;52.806;18.270;2023-03-26T16:57:42;99159.88;;;11.10;100.00
51928;BME280;37953;52.806;18.270;2023-03-26T17:05:49;99165.19;;;11.06;100.00
51928;BME280;37953;52.806;18.270;2023-03-26T17:43:32;99184.22;;;10.59;100.00
51928;BME280;37953;52.806;18.270;2023-03-26T17:46:03;99186.91;;;10.56;100.00
51928;BME280;37953;52.806;18.270;2023-03-26T17:48:35;99184.34;;;10.53;100.00
51928;BME280;37953;52.806;18.270;2023-03-26T17:51:13;99182.69;;;10.49;100.00
51928;BME280;37953;52.806;18.270;2023-03-26T17:53:50;99190.53;;;10.46;100.00
51928;BME280;37953;52.806;18.270;2023-03-26T17:56:18;99185.38;;;10.43;100.00
51928;BME280;37953;52.806;18.270;2023-03-26T17:58:48;99188.97;;;10.37;100.00
51928;BME280;37953;52.806;18.270;2023-03-26T18:04:00;99176.09;;;10.30;100.00
51928;BME280;37953;52.806;18.270;2023-03-26T18:06:36;99183.91;;;10.27;100.00
51928;BME280;37953;52.806;18.270;2023-03-26T18:17:00;99186.72;;;10.14;100.00
51928;BME280;37953;52.806;18.270;2023-03-26T18:19:26;99186.75;;;10.11;100.00
51928;BME280;37953;52.806;18.270;2023-03-26T18:21:56;99181.63;;;10.08;100.00
51928;BME280;37953;52.806;18.270;2023-03-26T18:24:28;99179.03;;;10.05;100.00
51928;BME280;37953;52.806;18.270;2023-03-26T18:27:14;99188.59;;;10.03;100.00
51928;BME280;37953;52.806;18.270;2023-03-26T18:30:00;99186.06;;;9.98;100.00
51928;BME280;37953;52.806;18.270;2023-03-26T18:32:27;99185.28;;;9.95;100.00
51928;BME280;37953;52.806;18.270;2023-03-26T18:37:28;99186.22;;;9.89;100.00
51928;BME280;37953;52.806;18.270;2023-03-26T18:39:57;99181.13;;;9.85;100.00
51928;BME280;37953;52.806;18.270;2023-03-26T18:42:25;99173.34;;;9.83;100.00
51928;BME280;37953;52.806;18.270;2023-03-26T18:44:52;99177.69;;;9.81;100.00
51928;BME280;37953;52.806;18.270;2023-03-26T18:47:20;99185.53;;;9.78;100.00
51928;BME280;37953;52.806;18.270;2023-03-26T18:49:50;99185.59;;;9.73;100.00
51928;BME280;37953;52.806;18.270;2023-03-26T18:52:20;99185.63;;;9.70;100.00
51928;BME280;37953;52.806;18.270;2023-03-26T18:54:49;99182.22;;;9.67;100.00
51928;BME280;37953;52.806;18.270;2023-03-26T18:57:27;99184.88;;;9.64;100.00
51928;BME280;37953;52.806;18.270;2023-03-26T18:59:55;99183.19;;;9.60;100.00
51928;BME280;37953;52.806;18.270;2023-03-26T19:02:36;99176.34;;;9.55;100.00
51928;BME280;37953;52.806;18.270;2023-03-26T19:05:04;99177.25;;;9.53;100.00
51928;BME280;37953;52.806;18.270;2023-03-26T19:07:33;99178.16;;;9.50;100.00
51928;BME280;37953;52.806;18.270;2023-03-26T19:10:02;99178.19;;;9.47;100.00
51928;BME280;37953;52.806;18.270;2023-03-26T19:12:31;99178.25;;;9.44;100.00
51928;BME280;37953;52.806;18.270;2023-03-26T19:15:06;99183.44;;;9.43;100.00
51928;BME280;37953;52.806;18.270;2023-03-26T19:17:37;99167.91;;;9.40;100.00
51928;BME280;37953;52.806;18.270;2023-03-26T19:20:06;99167.94;;;9.38;100.00
51928;BME280;37953;52.806;18.270;2023-03-26T19:22:39;99172.31;;;9.34;100.00
51928;BME280;37953;52.806;18.270;2023-03-26T19:25:07;99166.28;;;9.32;100.00
51928;BME280;37953;52.806;18.270;2023-03-26T19:27:41;99171.47;;;9.31;100.00
51928;BME280;37953;52.806;18.270;2023-03-26T19:30:17;99170.63;;;9.29;100.00
51928;BME280;37953;52.806;18.270;2023-03-26T19:33:11;99167.19;;;9.28;100.00
51928;BME280;37953;52.806;18.270;2023-03-26T19:36:02;99169.84;;;9.25;100.00
51928;BME280;37953;52.806;18.270;2023-03-26T19:38:36;99165.53;;;9.24;100.00
51928;BME280;37953;52.806;18.270;2023-03-26T19:43:30;99161.25;;;9.20;100.00
51928;BME280;37953;52.806;18.270;2023-03-26T19:45:58;99161.28;;;9.19;100.00
51928;BME280;37953;52.806;18.270;2023-03-26T19:48:26;99163.91;;;9.17;100.00
51928;BME280;37953;52.806;18.270;2023-03-26T19:51:04;99162.22;;;9.14;100.00
51928;BME280;37953;52.806;18.270;2023-03-26T19:53:32;99169.97;;;9.14;100.00
51928;BME280;37953;52.806;18.270;2023-03-26T19:56:10;99161.38;;;9.12;100.00
51928;BME280;37953;52.806;18.270;2023-03-26T19:58:38;99163.97;;;9.11;100.00
51928;BME280;37953;52.806;18.270;2023-03-26T20:01:14;99163.13;;;9.10;100.00
51928;BME280;37953;52.806;18.270;2023-03-26T20:03:43;99163.97;;;9.09;100.00
51928;BME280;37953;52.806;18.270;2023-03-26T20:06:12;99163.13;;;9.07;100.00
51928;BME280;37953;52.806;18.270;2023-03-26T20:08:39;99166.63;;;9.06;100.00
51928;BME280;37953;52.806;18.270;2023-03-26T20:11:42;99168.34;;;9.06;100.00
51928;BME280;37953;52.806;18.270;2023-03-26T20:14:13;99170.09;;;9.04;100.00
51928;BME280;37953;52.806;18.270;2023-03-26T20:16:47;99175.31;;;8.99;100.00
51928;BME280;37953;52.806;18.270;2023-03-26T20:19:16;99176.22;;;8.96;100.00
51928;BME280;37953;52.806;18.270;2023-03-26T20:21:45;99182.31;;;8.94;100.00
51928;BME280;37953;52.806;18.270;2023-03-26T20:24:14;99178.03;;;8.91;100.00
51928;BME280;37953;52.806;18.270;2023-03-26T20:26:46;99185.78;;;8.90;100.00
51928;BME280;37953;52.806;18.270;2023-03-26T20:29:18;99184.97;;;8.86;100.00
51928;BME280;37953;52.806;18.270;2023-03-26T20:31:46;99188.44;;;8.84;100.00
51928;BME280;37953;52.806;18.270;2023-03-26T20:34:19;99191.06;;;8.82;100.00
51928;BME280;37953;52.806;18.270;2023-03-26T20:36:49;99188.50;;;8.79;100.00